American Glory — WDA8860 — position and weather

sailwx.info

Track history (hours):
 
Tides and Currents Weather Stations Pressure Air Temp Water Temp Dewpoint Dewpoint Depression Visibility Wind Speed Wind Dir Waves Ship Positions

American Glory

Owner: AMERICAN CRUISE LINES INC, DELMAR, DE. More information available from US FCC via Universal Licensing System and Coast Guard Vessel Documentation Center.

Last reported at 2016-Oct-30 13:31 UTC. Time now 2016-Dec-02 20:05 UTC.
Position N 38°22' W 075°37'.
Warning: this ship's position is 33 days out of date.

Length 54 m; draft 2.1 m.

Type: Ship. MMSI: 366858820.

Date/timePositionNaut miles runAvg speedWind from/ knotsBaromVisibWave heightAir tempDewpointWater temp
2016-Oct-30 13:31N 38°22' W 075°37'6 5.7
2016-Oct-30 12:33N 38°20' W 075°44'5 5.1
2016-Oct-30 11:33N 38°16' W 075°47'7 2.3
2016-Oct-30 08:30N 38°13' W 075°55'52 2.9
2016-Oct-29 14:33N 38°59' W 076°23'27 8.9
2016-Oct-29 11:33N 39°23' W 076°06'17 8.3
2016-Oct-29 09:33N 39°32' W 075°48'19 6.2
2016-Oct-29 06:33N 39°22' W 075°28'17 8.5
2016-Oct-29 04:33N 39°09' W 075°14'57 6.3
2016-Oct-28 19:33N 39°36' W 074°10'3210.1
2016-Oct-28 16:23N 40°07' W 073°59'2310.0
2016-Oct-28 14:03N 40°30' W 073°58'12 2.7
2016-Oct-28 09:33N 40°43' W 073°59'0 0.0
2016-Oct-28 08:33N 40°43' W 073°59'0 0.0
2016-Oct-28 07:33N 40°43' W 073°59'0 0.0
2016-Oct-28 00:30N 40°43' W 073°59'0 0.0
2016-Oct-27 23:33N 40°43' W 073°59'0 0.0
2016-Oct-27 21:33N 40°43' W 073°59'  
2016-Oct-23 16:32N 40°43' W 073°59'0 0.0
2016-Oct-23 14:32N 40°43' W 073°59'0 0.0
2016-Oct-23 13:32N 40°43' W 073°59'0 0.0
2016-Oct-23 10:32N 40°43' W 073°59'0 0.0
2016-Oct-23 09:32N 40°43' W 073°59'0 0.0
2016-Oct-23 07:32N 40°43' W 073°59'0 0.0
2016-Oct-23 05:32N 40°43' W 073°59'0 0.0
2016-Oct-23 03:32N 40°43' W 073°59'0 0.0
2016-Oct-23 02:32N 40°43' W 073°59'0 0.0
2016-Oct-22 23:32N 40°43' W 073°59'0 0.0
2016-Oct-22 17:32N 40°43' W 073°59'0 0.0
2016-Oct-22 16:32N 40°43' W 073°59'0 0.0
2016-Oct-22 15:32N 40°43' W 073°59'0 0.0
2016-Oct-22 13:29N 40°43' W 073°59'0 0.0
2016-Oct-22 10:32N 40°43' W 073°59'0 0.0
2016-Oct-22 08:32N 40°43' W 073°59'0 0.0
2016-Oct-22 07:32N 40°43' W 073°59'0 0.0
2016-Oct-22 04:32N 40°43' W 073°59'0 0.0
2016-Oct-22 00:32N 40°43' W 073°59'0 0.0
2016-Oct-21 23:32N 40°43' W 073°59'0 0.0
2016-Oct-21 21:33N 40°43' W 073°59'  
Track history (hours):
 
Tides and Currents Weather Stations Pressure Air Temp Water Temp Dewpoint Dewpoint Depression Visibility Wind Speed Wind Dir Waves Ship Positions

American Glory

Owner: AMERICAN CRUISE LINES INC, DELMAR, DE. More information available from US FCC via Universal Licensing System and Coast Guard Vessel Documentation Center.

Last reported at 2016-Oct-30 13:31 UTC. Time now 2016-Dec-02 20:05 UTC.
Position N 38°22' W 075°37'.
Warning: this ship's position is 33 days out of date.

Length 54 m; draft 2.1 m.

Type: Ship. MMSI: 366858820.

Date/timePositionNaut miles runAvg speedWind from/ knotsBaromVisibWave heightAir tempDewpointWater temp
2016-Oct-30 13:31N 38°22' W 075°37'6 5.7
2016-Oct-30 12:33N 38°20' W 075°44'5 5.1
2016-Oct-30 11:33N 38°16' W 075°47'7 2.3
2016-Oct-30 08:30N 38°13' W 075°55'52 2.9
2016-Oct-29 14:33N 38°59' W 076°23'27 8.9
2016-Oct-29 11:33N 39°23' W 076°06'17 8.3
2016-Oct-29 09:33N 39°32' W 075°48'19 6.2
2016-Oct-29 06:33N 39°22' W 075°28'17 8.5
2016-Oct-29 04:33N 39°09' W 075°14'57 6.3
2016-Oct-28 19:33N 39°36' W 074°10'3210.1
2016-Oct-28 16:23N 40°07' W 073°59'2310.0
2016-Oct-28 14:03N 40°30' W 073°58'12 2.7
2016-Oct-28 09:33N 40°43' W 073°59'0 0.0
2016-Oct-28 08:33N 40°43' W 073°59'0 0.0
2016-Oct-28 07:33N 40°43' W 073°59'0 0.0
2016-Oct-28 00:30N 40°43' W 073°59'0 0.0
2016-Oct-27 23:33N 40°43' W 073°59'0 0.0
2016-Oct-27 21:33N 40°43' W 073°59'  
2016-Oct-23 16:32N 40°43' W 073°59'0 0.0
2016-Oct-23 14:32N 40°43' W 073°59'0 0.0
2016-Oct-23 13:32N 40°43' W 073°59'0 0.0
2016-Oct-23 10:32N 40°43' W 073°59'0 0.0
2016-Oct-23 09:32N 40°43' W 073°59'0 0.0
2016-Oct-23 07:32N 40°43' W 073°59'0 0.0
2016-Oct-23 05:32N 40°43' W 073°59'0 0.0
2016-Oct-23 03:32N 40°43' W 073°59'0 0.0
2016-Oct-23 02:32N 40°43' W 073°59'0 0.0
2016-Oct-22 23:32N 40°43' W 073°59'0 0.0
2016-Oct-22 17:32N 40°43' W 073°59'0 0.0
2016-Oct-22 16:32N 40°43' W 073°59'0 0.0
2016-Oct-22 15:32N 40°43' W 073°59'0 0.0
2016-Oct-22 13:29N 40°43' W 073°59'0 0.0
2016-Oct-22 10:32N 40°43' W 073°59'0 0.0
2016-Oct-22 08:32N 40°43' W 073°59'0 0.0
2016-Oct-22 07:32N 40°43' W 073°59'0 0.0
2016-Oct-22 04:32N 40°43' W 073°59'0 0.0
2016-Oct-22 00:32N 40°43' W 073°59'0 0.0
2016-Oct-21 23:32N 40°43' W 073°59'0 0.0
2016-Oct-21 21:33N 40°43' W 073°59'  

Dump ship's entire track history